Fulton, CA (95439)

12:09 AM PST on February 11, 2016 (GMT -0800)
Urban Tree Farm Nursery | | Change Station
CLOSE
Current Station
Personal Weather Station
Location: Fulton, CA
Elevation: 135 ft
Nearby Weather Stations

Elev 135 ft 38.49 °N, 122.77 °W | Updated 8 minutes ago

Clear
Clear
51.4 °F
Feels Like 51.4 °F
N
0.0
Wind Variable Wind from NE
Gusts 0.0 mph

Today
High -- | Low -- °F
--% Chance of Precip.
Yesterday
High -- | Low -- °F
Precip. -- in
Pressure 30.14 in
Visibility 9.0 miles
Clouds Clear
Dew Point 50 °F
Humidity 93%
Rainfall 0.00 in
Snow Depth Not available.
7:06 AM 5:44 PM
Waxing Crescent, 10% visible
METAR KSTS 110753Z AUTO 15003KT 9SM CLR 11/09 A3015 RMK AO2 SLP205 T01060094 402220056
Pressure 30.14 in
Visibility 9.0 miles
Clouds Clear
Dew Point 50 °F
Humidity 93%
Rainfall 0.00 in
Snow Depth Not available.
7:06 AM 5:44 PM
Waxing Crescent, 10% visible
METAR KSTS 110753Z AUTO 15003KT 9SM CLR 11/09 A3015 RMK AO2 SLP205 T01060094 402220056

10-Day Weather Forecast

Almanac

Astronomy

Feb. 11, 2016 Rise Set
Actual Time
Civil Twilight
Nautical Twilight
Astronomical Twilight
Moon
Length of Visible Light
Length of Day
Tomorrow will be .
, % of the Moon is Illuminated

Today's Extremes

State Highs State Lows

Community

WunderPhotos

Upload Photos

1,892,030 photos uploaded!

WunderBlog® & News

Nearby

Air Quality

  Air Quality AQ Index Pollutant
Not available.

Snow Depth

Station Depth Elevation

Earthquake Activity

City Distance Mag. Time & Date
Minimum magnitude displayed is 2.5.

Coastal Water Temperatures

Place Temperature

Stations

Nearby Weather Stations

Station Location Temp. Windchill Dew Point Humidity Wind Precip. Elev Updated Type
                   

Watches & Warnings

There are currently no watches in effect.